createdAt,value
2019-04-07T00:02:09.993Z,64.83
2019-04-07T00:04:39.665Z,65.37
2019-04-07T00:07:09.324Z,68.07
2019-04-07T00:09:40.082Z,66.20
2019-04-07T00:12:09.534Z,67.00
2019-04-07T00:14:39.160Z,62.73
2019-04-07T00:17:09.342Z,66.23
2019-04-07T00:19:38.906Z,63.63
2019-04-07T00:22:08.297Z,62.93
2019-04-07T00:24:37.719Z,68.50
2019-04-07T00:27:07.622Z,65.43
2019-04-07T00:29:36.887Z,70.73
2019-04-07T00:32:06.165Z,66.83
2019-04-07T00:34:35.863Z,61.33
2019-04-07T00:37:05.548Z,69.63
2019-04-07T00:39:34.801Z,70.53
2019-04-07T00:42:03.876Z,68.53
2019-04-07T00:44:33.555Z,65.67
2019-04-07T00:47:04.090Z,66.97
2019-04-07T00:49:33.393Z,69.47
2019-04-07T00:52:04.928Z,67.73
2019-04-07T00:54:34.759Z,67.30
2019-04-07T00:57:04.440Z,64.87
2019-04-07T00:59:35.186Z,68.17
2019-04-07T01:02:05.803Z,65.40
2019-04-07T01:04:35.451Z,63.80
2019-04-07T01:07:04.842Z,71.47
2019-04-07T01:09:35.284Z,69.77
2019-04-07T01:12:04.988Z,66.10
2019-04-07T01:14:34.293Z,67.00
2019-04-07T01:17:03.674Z,74.57
2019-04-07T01:19:33.296Z,71.80
2019-04-07T01:22:02.419Z,73.70
2019-04-07T01:24:31.865Z,72.60
2019-04-07T01:27:02.825Z,75.77
2019-04-07T01:29:32.174Z,71.40
2019-04-07T01:32:02.178Z,75.30
2019-04-07T01:34:32.171Z,70.30
2019-04-07T01:37:01.307Z,70.03
2019-04-07T01:39:30.730Z,71.03
2019-04-07T01:42:25.492Z,71.27
2019-04-07T01:45:29.165Z,69.50
2019-04-07T01:48:20.439Z,69.37
2019-04-07T01:51:13.623Z,70.00
2019-04-07T01:53:54.966Z,70.67
2019-04-07T01:56:44.062Z,67.57
2019-04-07T01:59:26.547Z,70.00
2019-04-07T02:02:27.254Z,70.13
2019-04-07T02:05:19.079Z,69.27
2019-04-07T02:07:55.723Z,85.53
2019-04-07T02:10:42.994Z,73.03
2019-04-07T02:13:31.328Z,70.83
2019-04-07T02:16:06.436Z,72.53
2019-04-07T02:18:57.617Z,73.07
2019-04-07T02:21:41.799Z,68.43
2019-04-07T02:24:23.501Z,73.03
2019-04-07T02:27:18.215Z,74.97
2019-04-07T02:30:13.054Z,72.27
2019-04-07T02:33:05.089Z,73.30
2019-04-07T02:35:46.551Z,70.90
2019-04-07T02:38:42.302Z,76.60
2019-04-07T02:41:24.507Z,71.50
2019-04-07T02:44:10.839Z,73.20
2019-04-07T02:46:57.571Z,75.40
2019-04-07T02:49:35.953Z,72.97
2019-04-07T02:52:28.130Z,77.03
2019-04-07T02:55:32.216Z,76.07
2019-04-07T02:58:20.273Z,70.83
2019-04-07T03:01:07.926Z,73.97
2019-04-07T03:03:55.557Z,72.60
2019-04-07T03:06:47.759Z,70.20
2019-04-07T03:09:20.545Z,77.83
2019-04-07T03:12:24.012Z,72.83
2019-04-07T03:15:24.907Z,73.27
2019-04-07T03:18:12.797Z,73.37
2019-04-07T03:21:08.349Z,75.50
2019-04-07T03:23:56.578Z,72.53
2019-04-07T03:26:58.246Z,76.60
2019-04-07T03:29:45.264Z,77.13
2019-04-07T03:32:38.844Z,79.27
2019-04-07T03:35:35.077Z,78.97
2019-04-07T03:38:36.810Z,74.27
2019-04-07T03:41:26.113Z,79.07
2019-04-07T03:44:01.328Z,81.37
2019-04-07T03:46:49.809Z,76.47
2019-04-07T03:49:23.833Z,81.50
2019-04-07T03:52:18.028Z,79.27
2019-04-07T03:55:09.555Z,78.10
2019-04-07T03:58:08.035Z,85.87
2019-04-07T04:01:35.516Z,84.00
2019-04-07T04:04:24.947Z,87.57
2019-04-07T04:07:20.628Z,89.17
2019-04-07T04:09:59.897Z,91.07
2019-04-07T04:12:46.916Z,94.87
2019-04-07T04:15:29.843Z,79.00
2019-04-07T04:18:01.191Z,82.87
2019-04-07T04:20:30.758Z,85.43
2019-04-07T04:23:00.073Z,85.73
2019-04-07T04:25:30.264Z,86.47
2019-04-07T04:27:59.918Z,79.83
2019-04-07T04:30:29.948Z,90.87
2019-04-07T04:32:59.784Z,86.07
2019-04-07T04:35:32.362Z,86.90
2019-04-07T04:38:02.257Z,80.17
2019-04-07T04:40:32.312Z,88.10
2019-04-07T04:43:03.304Z,91.80
2019-04-07T04:45:33.802Z,85.63
2019-04-07T04:48:03.042Z,83.77
2019-04-07T04:50:32.242Z,87.63
2019-04-07T04:53:02.049Z,85.17
2019-04-07T04:55:31.898Z,85.73
2019-04-07T04:58:02.242Z,91.37
2019-04-07T05:00:32.692Z,94.83
2019-04-07T05:03:02.826Z,94.93
2019-04-07T05:05:32.927Z,89.90
2019-04-07T05:08:05.115Z,95.47
2019-04-07T05:10:33.145Z,94.87
2019-04-07T05:13:02.794Z,86.77
2019-04-07T05:15:35.121Z,95.07
2019-04-07T05:18:06.417Z,97.30
2019-04-07T05:20:36.000Z,87.80
2019-04-07T05:23:05.310Z,96.43
2019-04-07T05:25:34.947Z,91.40
2019-04-07T05:28:07.936Z,92.10
2019-04-07T05:30:38.087Z,94.80
2019-04-07T05:33:07.529Z,92.47
2019-04-07T05:35:37.859Z,99.00
2019-04-07T05:38:08.354Z,96.63
2019-04-07T05:40:38.684Z,94.10
2019-04-07T05:43:07.790Z,96.03
2019-04-07T05:45:37.687Z,90.87
2019-04-07T05:48:08.163Z,87.60
2019-04-07T05:50:38.582Z,90.03
2019-04-07T05:53:12.125Z,97.37
2019-04-07T05:55:42.585Z,94.20
2019-04-07T05:58:15.276Z,85.03
2019-04-07T06:00:45.755Z,87.63
2019-04-07T06:03:15.382Z,87.80
2019-04-07T06:05:50.038Z,85.70
2019-04-07T06:08:25.829Z,87.43
2019-04-07T06:10:47.198Z,83.23
2019-04-07T06:13:17.495Z,81.03
2019-04-07T06:15:48.581Z,78.23
2019-04-07T06:18:18.478Z,85.93
2019-04-07T06:20:48.532Z,75.37
2019-04-07T06:23:22.749Z,83.70
2019-04-07T06:25:50.123Z,78.67
2019-04-07T06:28:19.520Z,77.07
2019-04-07T06:30:49.542Z,82.33
2019-04-07T06:33:19.932Z,78.93
2019-04-07T06:35:49.828Z,78.00
2019-04-07T06:38:30.322Z,71.37
2019-04-07T06:40:50.805Z,72.07
2019-04-07T06:43:22.311Z,76.70
2019-04-07T06:45:58.974Z,74.47
2019-04-07T06:48:28.867Z,71.33
2019-04-07T06:51:09.569Z,74.03
2019-04-07T06:53:59.004Z,66.67
2019-04-07T06:56:38.667Z,71.37
2019-04-07T06:59:18.580Z,64.73
2019-04-07T07:02:07.311Z,68.37
2019-04-07T07:05:01.788Z,69.60
2019-04-07T07:07:42.519Z,68.00
2019-04-07T07:10:35.555Z,70.53
2019-04-07T07:13:11.812Z,62.60
2019-04-07T07:16:00.470Z,60.90
2019-04-07T07:18:54.717Z,65.33
2019-04-07T07:21:38.752Z,64.77
2019-04-07T07:24:06.033Z,64.20
2019-04-07T07:26:37.172Z,59.87
2019-04-07T07:29:06.829Z,60.90
2019-04-07T07:31:36.914Z,62.13
2019-04-07T07:34:09.382Z,60.83
2019-04-07T07:36:39.294Z,62.93
2019-04-07T07:39:11.790Z,58.57
2019-04-07T07:41:41.298Z,60.13
2019-04-07T07:44:13.521Z,59.50
2019-04-07T07:46:44.448Z,55.27
2019-04-07T07:49:14.773Z,54.80
2019-04-07T07:51:47.359Z,52.53
2019-04-07T07:54:17.234Z,55.43
2019-04-07T07:56:48.595Z,62.90
2019-04-07T07:59:20.179Z,54.93
2019-04-07T08:01:53.463Z,52.80
2019-04-07T08:04:26.956Z,57.07
2019-04-07T08:06:57.856Z,60.60
2019-04-07T08:09:27.298Z,51.83
2019-04-07T08:11:57.784Z,49.93
2019-04-07T08:14:27.325Z,54.00
2019-04-07T08:17:02.473Z,53.10
2019-04-07T08:19:32.994Z,51.87
2019-04-07T08:22:03.050Z,50.50
2019-04-07T08:24:32.777Z,46.87
2019-04-07T08:27:04.030Z,47.90
2019-04-07T08:29:37.147Z,53.17
2019-04-07T08:32:06.619Z,49.83
2019-04-07T08:34:37.182Z,49.27
2019-04-07T08:37:09.566Z,48.93
2019-04-07T08:40:16.976Z,49.23
2019-04-07T08:42:49.114Z,46.77
2019-04-07T08:45:18.945Z,44.33
2019-04-07T08:47:52.476Z,51.30
2019-04-07T08:50:22.785Z,53.67
2019-04-07T08:53:21.253Z,48.00
2019-04-07T08:55:54.403Z,53.63
2019-04-07T08:58:25.776Z,47.50
2019-04-07T09:00:53.988Z,52.57
2019-04-07T09:03:23.706Z,47.67
2019-04-07T09:05:56.458Z,45.30
2019-04-07T09:08:24.059Z,43.80
2019-04-07T09:11:08.986Z,50.67
2019-04-07T09:13:38.492Z,51.17
2019-04-07T09:16:35.892Z,45.43
2019-04-07T09:19:36.806Z,47.00
2019-04-07T09:22:40.763Z,44.37
2019-04-07T09:25:21.412Z,48.43
2019-04-07T09:27:57.204Z,44.00
2019-04-07T09:30:48.415Z,46.00
2019-04-07T09:33:36.949Z,48.37
2019-04-07T09:36:16.945Z,49.93
2019-04-07T09:39:12.351Z,48.63
2019-04-07T09:41:58.715Z,44.20
2019-04-07T09:44:55.231Z,43.47
2019-04-07T09:47:46.821Z,44.30
2019-04-07T09:50:36.390Z,42.70
2019-04-07T09:53:18.890Z,43.40
2019-04-07T09:56:05.752Z,36.50
2019-04-07T09:58:54.631Z,39.53
2019-04-07T10:01:36.404Z,35.70
2019-04-07T10:04:31.249Z,44.03
2019-04-07T10:07:09.640Z,36.07
2019-04-07T10:10:12.957Z,33.63
2019-04-07T10:13:00.953Z,35.97
2019-04-07T10:15:47.808Z,32.43
2019-04-07T10:18:36.727Z,36.03
2019-04-07T10:21:24.085Z,34.30
2019-04-07T10:24:00.742Z,25.23
2019-04-07T10:26:47.346Z,27.13
2019-04-07T10:29:35.324Z,28.37
2019-04-07T10:32:27.072Z,27.47
2019-04-07T10:35:19.363Z,28.73
2019-04-07T10:37:58.166Z,29.33
2019-04-07T10:40:50.363Z,21.30
2019-04-07T10:43:41.298Z,29.23
2019-04-07T10:46:22.586Z,29.33
2019-04-07T10:49:04.655Z,28.33
2019-04-07T10:51:53.391Z,25.50
2019-04-07T10:54:44.798Z,22.27
2019-04-07T10:57:48.150Z,28.60
2019-04-07T11:00:51.545Z,23.20
2019-04-07T11:03:39.420Z,21.17
2019-04-07T11:06:28.404Z,21.83
2019-04-07T11:09:13.281Z,19.37
2019-04-07T11:11:59.981Z,22.63
2019-04-07T11:14:51.694Z,19.03
2019-04-07T11:17:43.676Z,22.80
2019-04-07T11:20:41.064Z,21.57
2019-04-07T11:23:35.835Z,20.37
2019-04-07T11:26:27.397Z,16.40
2019-04-07T11:29:07.116Z,20.27
2019-04-07T11:32:05.509Z,21.47
2019-04-07T11:35:00.616Z,19.83
2019-04-07T11:37:51.818Z,18.10
2019-04-07T11:40:51.190Z,17.60
2019-04-07T11:43:44.467Z,20.20
2019-04-07T11:46:51.932Z,19.03
2019-04-07T11:49:46.210Z,19.47
2019-04-07T11:52:27.833Z,22.33
2019-04-07T11:55:06.425Z,20.37
2019-04-07T11:58:13.522Z,23.20
2019-04-07T12:00:53.894Z,19.53
2019-04-07T12:03:57.997Z,17.07
2019-04-07T12:07:07.792Z,17.23
2019-04-07T12:09:55.244Z,18.10
2019-04-07T12:12:32.968Z,22.13
2019-04-07T12:15:36.928Z,17.57
2019-04-07T12:18:23.741Z,20.73
2019-04-07T12:21:05.247Z,22.73
2019-04-07T12:23:52.831Z,21.77
2019-04-07T12:26:43.614Z,18.87
2019-04-07T12:29:23.262Z,22.93
2019-04-07T12:32:10.831Z,17.80
2019-04-07T12:34:57.845Z,19.17
2019-04-07T12:37:42.026Z,20.93
2019-04-07T12:40:32.583Z,19.60
2019-04-07T12:43:33.930Z,21.53
2019-04-07T12:46:19.318Z,20.30
2019-04-07T12:49:09.148Z,18.90
2019-04-07T12:52:05.835Z,21.60
2019-04-07T12:55:00.422Z,21.13
2019-04-07T12:57:52.097Z,23.23
2019-04-07T13:00:56.112Z,22.33
2019-04-07T13:03:37.441Z,21.33
2019-04-07T13:06:17.895Z,20.63
2019-04-07T13:09:07.105Z,23.10
2019-04-07T13:11:45.812Z,20.03
2019-04-07T13:14:35.275Z,20.83
2019-04-07T13:17:22.009Z,23.67
2019-04-07T13:19:59.072Z,20.73
2019-04-07T13:22:42.486Z,21.83
2019-04-07T13:25:30.231Z,22.57
2019-04-07T13:28:22.841Z,19.97
2019-04-07T13:31:13.505Z,20.67
2019-04-07T13:34:01.196Z,20.97
2019-04-07T13:36:47.714Z,22.83
2019-04-07T13:39:48.357Z,20.67
2019-04-07T13:42:43.113Z,24.77
2019-04-07T13:45:37.172Z,21.43
2019-04-07T13:48:33.343Z,19.37
2019-04-07T13:51:21.543Z,19.80
2019-04-07T13:54:11.097Z,23.17
2019-04-07T13:56:59.080Z,17.40
2019-04-07T13:59:48.821Z,19.00
2019-04-07T14:02:31.576Z,21.17
2019-04-07T14:05:25.959Z,18.17
2019-04-07T14:08:07.081Z,23.53
2019-04-07T14:10:47.182Z,19.77
2019-04-07T14:13:26.822Z,19.10
2019-04-07T14:16:16.001Z,20.10
2019-04-07T14:19:13.852Z,21.63
2019-04-07T14:22:11.271Z,22.17
2019-04-07T14:24:49.921Z,21.00
2019-04-07T14:27:38.416Z,20.57
2019-04-07T14:30:19.219Z,22.43
2019-04-07T14:33:00.070Z,20.73
2019-04-07T14:36:04.258Z,21.13
2019-04-07T14:38:45.555Z,23.57
2019-04-07T14:41:41.162Z,24.53
2019-04-07T14:44:22.557Z,20.27
2019-04-07T14:47:10.790Z,21.97
2019-04-07T14:50:01.953Z,20.17
2019-04-07T14:52:44.761Z,19.00
2019-04-07T14:55:22.623Z,20.40
2019-04-07T14:58:17.520Z,25.17
2019-04-07T15:01:04.630Z,18.30
2019-04-07T15:03:33.294Z,21.50
2019-04-07T15:06:49.175Z,22.70
2019-04-07T15:09:25.095Z,23.60
2019-04-07T15:12:05.216Z,24.00
2019-04-07T15:14:33.857Z,21.63
2019-04-07T15:17:03.629Z,20.57
2019-04-07T15:19:33.932Z,22.73
2019-04-07T15:22:04.558Z,18.33
2019-04-07T15:24:35.867Z,20.07
2019-04-07T15:27:06.528Z,18.83
2019-04-07T15:29:41.359Z,20.90
2019-04-07T15:32:07.517Z,20.60
2019-04-07T15:34:39.494Z,19.97
2019-04-07T15:37:08.367Z,16.33
2019-04-07T15:39:38.373Z,19.50
2019-04-07T15:42:09.312Z,16.50
2019-04-07T15:44:39.647Z,22.87
2019-04-07T15:47:09.486Z,20.93
2019-04-07T15:49:38.790Z,18.87
2019-04-07T15:52:11.263Z,18.20
2019-04-07T15:54:40.368Z,21.67
2019-04-07T15:57:10.062Z,19.40
2019-04-07T15:59:42.402Z,18.57
2019-04-07T16:02:12.460Z,18.90
2019-04-07T16:04:42.512Z,18.70
2019-04-07T16:07:12.211Z,21.57
2019-04-07T16:09:51.059Z,22.30
2019-04-07T16:12:13.485Z,17.90
2019-04-07T16:14:46.496Z,20.50
2019-04-07T16:17:14.607Z,20.40
2019-04-07T16:19:50.486Z,20.87
2019-04-07T16:22:15.663Z,23.23
2019-04-07T16:24:47.516Z,20.13
2019-04-07T16:27:39.221Z,20.47
2019-04-07T16:30:08.652Z,21.87
2019-04-07T16:32:44.951Z,22.50
2019-04-07T16:35:18.306Z,19.17
2019-04-07T16:37:48.219Z,17.63
2019-04-07T16:40:21.909Z,18.13
2019-04-07T16:43:04.443Z,24.60
2019-04-07T16:45:22.366Z,21.53
2019-04-07T16:47:51.922Z,21.87
2019-04-07T16:50:21.556Z,23.20
2019-04-07T16:52:51.246Z,22.83
2019-04-07T16:55:37.811Z,20.33
2019-04-07T16:58:09.534Z,21.40
2019-04-07T17:00:40.029Z,22.37
2019-04-07T17:03:13.132Z,20.20
2019-04-07T17:05:43.055Z,20.53
2019-04-07T17:08:12.925Z,22.87
2019-04-07T17:10:42.575Z,20.53
2019-04-07T17:13:18.678Z,20.30
2019-04-07T17:15:45.427Z,21.23
2019-04-07T17:18:41.163Z,22.70
2019-04-07T17:21:15.994Z,24.33
2019-04-07T17:23:46.244Z,25.63
2019-04-07T17:26:16.557Z,28.23
2019-04-07T17:28:48.440Z,26.60
2019-04-07T17:31:17.670Z,21.70
2019-04-07T17:33:47.167Z,20.83
2019-04-07T17:36:20.101Z,26.43
2019-04-07T17:39:09.988Z,22.20
2019-04-07T17:41:39.290Z,21.27
2019-04-07T17:44:24.497Z,24.93
2019-04-07T17:47:09.772Z,26.23
2019-04-07T17:49:52.401Z,22.10
2019-04-07T17:52:44.177Z,23.10
2019-04-07T17:55:41.793Z,28.07
2019-04-07T17:58:29.853Z,23.87
2019-04-07T18:01:20.600Z,28.07
2019-04-07T18:04:05.722Z,23.47
2019-04-07T18:06:41.840Z,30.30
2019-04-07T18:09:37.247Z,28.47
2019-04-07T18:12:16.367Z,28.70
2019-04-07T18:15:09.865Z,26.30
2019-04-07T18:17:49.753Z,29.50
2019-04-07T18:20:29.403Z,28.43
2019-04-07T18:23:26.458Z,30.17
2019-04-07T18:26:04.981Z,36.90
2019-04-07T18:28:52.707Z,29.87
2019-04-07T18:31:42.054Z,28.73
2019-04-07T18:34:42.987Z,28.70
2019-04-07T18:37:32.330Z,23.60
2019-04-07T18:40:08.944Z,28.70
2019-04-07T18:42:57.750Z,26.93
2019-04-07T18:45:38.491Z,29.50
2019-04-07T18:48:42.337Z,27.97
2019-04-07T18:51:29.382Z,25.87
2019-04-07T18:54:23.562Z,32.80
2019-04-07T18:57:13.977Z,32.07
2019-04-07T19:00:12.642Z,31.23
2019-04-07T19:03:09.338Z,26.17
2019-04-07T19:05:52.799Z,22.97
2019-04-07T19:08:52.729Z,31.37
2019-04-07T19:11:38.379Z,27.10
2019-04-07T19:14:41.964Z,33.30
2019-04-07T19:17:05.040Z,35.73
2019-04-07T19:19:59.479Z,32.37
2019-04-07T19:22:49.083Z,59.40
2019-04-07T19:25:45.721Z,42.93
2019-04-07T19:28:26.460Z,44.53
2019-04-07T19:31:19.538Z,38.77
2019-04-07T19:34:03.870Z,34.53
2019-04-07T19:37:15.583Z,36.90
2019-04-07T19:40:03.002Z,26.43
2019-04-07T19:42:48.217Z,29.47
2019-04-07T19:45:35.551Z,26.33
2019-04-07T19:48:39.036Z,26.70
2019-04-07T19:51:33.956Z,25.20
2019-04-07T19:54:29.248Z,25.23
2019-04-07T19:57:23.780Z,25.30
2019-04-07T20:00:02.722Z,28.70
2019-04-07T20:02:55.753Z,30.33
2019-04-07T20:05:44.008Z,29.00
2019-04-07T20:08:49.353Z,31.97
2019-04-07T20:11:41.656Z,34.40
2019-04-07T20:14:47.568Z,26.10
2019-04-07T20:17:32.478Z,25.63
2019-04-07T20:20:13.642Z,27.37
2019-04-07T20:23:06.394Z,31.20
2019-04-07T20:25:57.381Z,28.30
2019-04-07T20:28:41.232Z,29.93
2019-04-07T20:31:38.696Z,29.37
2019-04-07T20:34:27.455Z,29.00
2019-04-07T20:37:05.769Z,29.73
2019-04-07T20:39:47.713Z,30.13
2019-04-07T20:42:34.745Z,29.57
2019-04-07T20:45:22.709Z,30.07
2019-04-07T20:48:01.850Z,29.57
2019-04-07T20:50:48.824Z,26.47
2019-04-07T20:53:29.048Z,30.33
2019-04-07T20:56:14.673Z,27.53
2019-04-07T20:59:25.281Z,29.67
2019-04-07T21:02:20.818Z,29.40
2019-04-07T21:04:59.303Z,29.70
2019-04-07T21:08:24.288Z,27.70
2019-04-07T21:11:08.203Z,31.37
2019-04-07T21:13:52.467Z,28.93
2019-04-07T21:16:35.507Z,29.00
2019-04-07T21:19:22.872Z,31.63
2019-04-07T21:22:08.820Z,30.80
2019-04-07T21:25:13.507Z,30.00
2019-04-07T21:28:24.635Z,32.33
2019-04-07T21:31:16.081Z,30.93
2019-04-07T21:33:57.765Z,29.00
2019-04-07T21:36:39.317Z,29.00
2019-04-07T21:39:29.431Z,33.03
2019-04-07T21:42:25.395Z,29.57
2019-04-07T21:45:29.093Z,31.93
2019-04-07T21:48:06.195Z,27.93
2019-04-07T21:50:55.318Z,30.67
2019-04-07T21:53:38.106Z,29.33
2019-04-07T21:56:32.773Z,28.97
2019-04-07T21:59:21.524Z,29.20
2019-04-07T22:02:13.576Z,30.07
2019-04-07T22:04:53.219Z,26.53
2019-04-07T22:07:36.312Z,31.57
2019-04-07T22:10:07.410Z,32.33
2019-04-07T22:12:36.645Z,36.70
2019-04-07T22:15:11.644Z,37.33
2019-04-07T22:17:39.328Z,34.17
2019-04-07T22:20:10.476Z,32.47
2019-04-07T22:22:40.772Z,34.70
2019-04-07T22:25:11.490Z,32.33
2019-04-07T22:27:41.074Z,37.10
2019-04-07T22:30:11.680Z,30.53
2019-04-07T22:32:40.990Z,36.40
2019-04-07T22:35:10.620Z,34.07
2019-04-07T22:37:42.870Z,33.17
2019-04-07T22:40:15.697Z,38.27
2019-04-07T22:42:45.974Z,38.73
2019-04-07T22:45:16.189Z,34.37
2019-04-07T22:47:46.649Z,35.93
2019-04-07T22:50:17.009Z,34.47
2019-04-07T22:52:49.184Z,36.17
2019-04-07T22:55:16.986Z,36.57
2019-04-07T22:57:46.040Z,35.57
2019-04-07T23:00:19.688Z,35.13
2019-04-07T23:02:48.834Z,33.90
2019-04-07T23:05:19.081Z,37.17
2019-04-07T23:07:48.377Z,42.57
2019-04-07T23:10:18.548Z,38.33
2019-04-07T23:12:47.996Z,42.43
2019-04-07T23:15:16.908Z,39.13
2019-04-07T23:17:55.755Z,39.90
2019-04-07T23:20:24.864Z,40.97
2019-04-07T23:22:54.227Z,37.37
2019-04-07T23:25:23.356Z,37.40
2019-04-07T23:27:52.294Z,36.40
2019-04-07T23:30:25.851Z,40.40
2019-04-07T23:32:55.678Z,42.00
2019-04-07T23:35:24.981Z,43.83
2019-04-07T23:37:53.921Z,43.90
2019-04-07T23:40:23.750Z,37.33
2019-04-07T23:42:53.070Z,41.63
2019-04-07T23:45:23.168Z,40.97
2019-04-07T23:47:52.554Z,46.57
2019-04-07T23:50:23.122Z,43.37
2019-04-07T23:52:52.218Z,45.90
2019-04-07T23:55:21.918Z,46.20
2019-04-07T23:57:52.166Z,46.57
